createdAt,value
2022-09-30T00:01:11.892Z,16.47
2022-09-30T00:03:38.193Z,16.44
2022-09-30T00:06:08.466Z,16.41
2022-09-30T00:08:35.744Z,16.38
2022-09-30T00:11:02.050Z,16.35
2022-09-30T00:13:30.290Z,16.34
2022-09-30T00:15:59.623Z,16.32
2022-09-30T00:18:25.955Z,16.28
2022-09-30T00:21:01.094Z,16.26
2022-09-30T00:23:30.357Z,16.24
2022-09-30T00:25:56.783Z,16.22
2022-09-30T00:28:23.552Z,16.19
2022-09-30T00:30:49.905Z,16.17
2022-09-30T00:33:16.806Z,16.14
2022-09-30T00:35:43.171Z,16.11
2022-09-30T00:38:09.484Z,16.09
2022-09-30T00:40:35.766Z,16.07
2022-09-30T00:43:01.994Z,16.05
2022-09-30T00:45:28.189Z,16.02
2022-09-30T00:47:54.484Z,16.00
2022-09-30T00:50:20.930Z,15.96
2022-09-30T00:52:47.186Z,15.94
2022-09-30T00:55:15.131Z,15.90
2022-09-30T00:57:44.589Z,15.87
2022-09-30T01:00:10.822Z,15.86
2022-09-30T01:02:37.161Z,15.82
2022-09-30T01:05:03.404Z,15.79
2022-09-30T01:07:30.242Z,15.77
2022-09-30T01:09:57.183Z,15.74
2022-09-30T01:12:24.537Z,15.72
2022-09-30T01:14:50.767Z,15.68
2022-09-30T01:17:17.385Z,15.65
2022-09-30T01:19:43.621Z,15.63
2022-09-30T01:22:09.832Z,15.60
2022-09-30T01:24:36.062Z,15.58
2022-09-30T01:27:02.783Z,15.55
2022-09-30T01:29:29.254Z,15.54
2022-09-30T01:31:58.605Z,15.53
2022-09-30T01:34:25.313Z,15.51
2022-09-30T01:36:52.962Z,15.47
2022-09-30T01:39:19.235Z,15.43
2022-09-30T01:41:45.649Z,15.39
2022-09-30T01:44:11.867Z,15.39
2022-09-30T01:46:38.160Z,15.38
2022-09-30T01:49:04.412Z,15.37
2022-09-30T01:51:32.332Z,15.35
2022-09-30T01:53:58.574Z,15.33
2022-09-30T01:56:25.057Z,15.29
2022-09-30T01:58:51.282Z,15.28
2022-09-30T02:01:17.555Z,15.25
2022-09-30T02:03:43.860Z,15.24
2022-09-30T02:06:10.239Z,15.19
2022-09-30T02:08:36.553Z,15.19
2022-09-30T02:11:03.012Z,15.16
2022-09-30T02:13:29.302Z,15.13
2022-09-30T02:15:55.567Z,15.11
2022-09-30T02:18:22.545Z,15.08
2022-09-30T02:20:48.760Z,15.07
2022-09-30T02:23:15.416Z,15.04
2022-09-30T02:25:41.631Z,15.01
2022-09-30T02:28:07.837Z,14.99
2022-09-30T02:30:34.368Z,14.96
2022-09-30T02:33:00.582Z,14.94
2022-09-30T02:35:26.815Z,14.91
2022-09-30T02:37:53.190Z,14.89
2022-09-30T02:40:19.426Z,14.87
2022-09-30T02:42:45.674Z,14.84
2022-09-30T02:45:11.867Z,14.81
2022-09-30T02:47:38.044Z,14.79
2022-09-30T02:50:04.263Z,14.76
2022-09-30T02:52:30.508Z,14.74
2022-09-30T02:54:56.712Z,14.72
2022-09-30T02:57:23.049Z,14.69
2022-09-30T02:59:49.260Z,14.66
2022-09-30T03:02:15.689Z,14.64
2022-09-30T03:04:42.199Z,14.61
2022-09-30T03:07:08.465Z,14.60
2022-09-30T03:09:34.860Z,14.57
2022-09-30T03:12:01.839Z,14.56
2022-09-30T03:14:28.078Z,14.54
2022-09-30T03:16:54.750Z,14.52
2022-09-30T03:19:21.387Z,14.50
2022-09-30T03:21:47.594Z,14.49
2022-09-30T03:24:13.930Z,14.46
2022-09-30T03:26:40.173Z,14.44
2022-09-30T03:29:08.472Z,14.42
2022-09-30T03:31:34.856Z,14.40
2022-09-30T03:34:01.429Z,14.37
2022-09-30T03:36:27.630Z,14.36
2022-09-30T03:38:54.141Z,14.33
2022-09-30T03:41:20.341Z,14.30
2022-09-30T03:43:46.594Z,14.31
2022-09-30T03:46:13.969Z,14.35
2022-09-30T03:48:40.424Z,14.42
2022-09-30T03:51:06.818Z,14.51
2022-09-30T03:53:33.078Z,14.59
2022-09-30T03:55:59.344Z,14.67
2022-09-30T03:58:25.553Z,14.74
2022-09-30T04:00:51.772Z,14.82
2022-09-30T04:03:18.062Z,14.88
2022-09-30T04:05:44.510Z,14.93
2022-09-30T04:08:10.746Z,15.01
2022-09-30T04:10:37.029Z,15.04
2022-09-30T04:13:03.659Z,15.07
2022-09-30T04:15:29.856Z,15.10
2022-09-30T04:17:56.129Z,15.12
2022-09-30T04:20:22.488Z,15.18
2022-09-30T04:22:48.732Z,15.22
2022-09-30T04:25:14.948Z,15.28
2022-09-30T04:27:41.211Z,15.33
2022-09-30T04:30:07.431Z,15.39
2022-09-30T04:32:33.688Z,15.43
2022-09-30T04:34:59.932Z,15.48
2022-09-30T04:37:26.226Z,15.52
2022-09-30T04:39:52.560Z,15.54
2022-09-30T04:42:18.803Z,15.57
2022-09-30T04:44:45.120Z,15.61
2022-09-30T04:47:11.433Z,15.69
2022-09-30T04:49:37.678Z,15.77
2022-09-30T04:52:04.497Z,15.81
2022-09-30T04:54:30.805Z,15.82
2022-09-30T04:56:57.050Z,15.84
2022-09-30T04:59:23.348Z,15.85
2022-09-30T05:01:49.773Z,15.84
2022-09-30T05:04:16.116Z,15.87
2022-09-30T05:06:42.516Z,15.90
2022-09-30T05:09:08.788Z,15.91
2022-09-30T05:11:35.060Z,15.93
2022-09-30T05:14:01.374Z,15.95
2022-09-30T05:16:27.991Z,15.98
2022-09-30T05:18:54.477Z,16.01
2022-09-30T05:21:20.857Z,16.01
2022-09-30T05:23:47.255Z,16.03
2022-09-30T05:26:13.557Z,16.06
2022-09-30T05:28:40.069Z,16.07
2022-09-30T05:31:06.545Z,16.09
2022-09-30T05:33:32.908Z,16.10
2022-09-30T05:35:59.354Z,16.12
2022-09-30T05:38:25.794Z,16.15
2022-09-30T05:40:51.982Z,16.16
2022-09-30T05:43:18.195Z,16.18
2022-09-30T05:45:44.528Z,16.20
2022-09-30T05:48:10.757Z,16.32
2022-09-30T05:50:36.985Z,16.45
2022-09-30T05:53:03.386Z,16.57
2022-09-30T05:55:29.738Z,16.68
2022-09-30T05:57:56.000Z,16.81
2022-09-30T06:00:22.665Z,16.92
2022-09-30T06:02:48.993Z,17.05
2022-09-30T06:05:15.292Z,17.17
2022-09-30T06:07:41.532Z,17.33
2022-09-30T06:10:07.762Z,17.48
2022-09-30T06:12:34.288Z,17.61
2022-09-30T06:15:00.697Z,17.79
2022-09-30T06:17:26.977Z,18.02
2022-09-30T06:19:53.392Z,18.23
2022-09-30T06:22:19.622Z,18.44
2022-09-30T06:24:45.841Z,18.67
2022-09-30T06:27:12.239Z,18.90
2022-09-30T06:29:38.456Z,19.10
2022-09-30T06:32:04.693Z,19.27
2022-09-30T06:34:30.972Z,19.43
2022-09-30T06:36:57.356Z,19.60
2022-09-30T06:39:23.718Z,19.79
2022-09-30T06:41:50.304Z,20.01
2022-09-30T06:44:16.769Z,20.22
2022-09-30T06:46:53.316Z,20.40
2022-09-30T06:49:20.328Z,20.60
2022-09-30T06:51:46.553Z,20.76
2022-09-30T06:54:12.765Z,20.92
2022-09-30T06:56:38.997Z,21.06
2022-09-30T06:59:05.456Z,21.21
2022-09-30T07:01:31.674Z,21.34
2022-09-30T07:03:58.097Z,21.48
2022-09-30T07:06:24.497Z,21.60
2022-09-30T07:08:50.723Z,21.73
2022-09-30T07:11:16.925Z,21.85
2022-09-30T07:13:43.217Z,21.96
2022-09-30T07:16:09.668Z,22.07
2022-09-30T07:18:35.930Z,22.17
2022-09-30T07:21:05.564Z,22.25
2022-09-30T07:23:31.863Z,22.32
2022-09-30T07:25:58.066Z,22.41
2022-09-30T07:28:24.440Z,22.47
2022-09-30T07:30:50.728Z,22.54
2022-09-30T07:33:17.012Z,22.61
2022-09-30T07:35:43.975Z,22.68
2022-09-30T07:38:10.280Z,22.74
2022-09-30T07:40:36.736Z,22.83
2022-09-30T07:43:03.054Z,22.89
2022-09-30T07:45:29.489Z,22.95
2022-09-30T07:47:56.066Z,23.00
2022-09-30T07:50:22.823Z,23.05
2022-09-30T07:52:49.092Z,23.14
2022-09-30T07:55:15.397Z,23.23
2022-09-30T07:57:41.696Z,23.32
2022-09-30T08:00:30.216Z,23.41
2022-09-30T08:02:56.552Z,23.53
2022-09-30T08:05:22.998Z,23.63
2022-09-30T08:07:49.486Z,23.74
2022-09-30T08:10:15.735Z,23.86
2022-09-30T08:12:42.014Z,23.98
2022-09-30T08:15:08.228Z,24.11
2022-09-30T08:17:34.500Z,24.23
2022-09-30T08:20:00.733Z,24.37
2022-09-30T08:22:27.122Z,24.50
2022-09-30T08:25:01.778Z,24.61
2022-09-30T08:27:28.043Z,24.79
2022-09-30T08:29:56.569Z,24.92
2022-09-30T08:32:23.753Z,25.07
2022-09-30T08:34:50.299Z,25.20
2022-09-30T08:37:16.659Z,25.27
2022-09-30T08:39:42.948Z,25.37
2022-09-30T08:42:25.472Z,25.42
2022-09-30T08:44:55.658Z,25.45
2022-09-30T08:47:21.966Z,25.45
2022-09-30T08:49:48.494Z,25.42
2022-09-30T08:52:24.465Z,25.36
2022-09-30T08:54:57.204Z,25.27
2022-09-30T08:57:24.511Z,25.13
2022-09-30T08:59:50.726Z,24.94
2022-09-30T09:02:17.725Z,24.66
2022-09-30T09:04:44.499Z,24.27
2022-09-30T09:07:10.820Z,23.77
2022-09-30T09:09:37.052Z,23.53
2022-09-30T09:12:03.252Z,23.43
2022-09-30T09:14:29.480Z,23.40
2022-09-30T09:16:55.859Z,23.40
2022-09-30T09:19:22.681Z,23.39
2022-09-30T09:21:49.010Z,23.39
2022-09-30T09:24:15.241Z,23.40
2022-09-30T09:26:41.518Z,23.39
2022-09-30T09:29:07.753Z,23.39
2022-09-30T09:31:34.036Z,23.39
2022-09-30T09:34:00.308Z,23.39
2022-09-30T09:36:26.834Z,23.39
2022-09-30T09:38:53.165Z,23.40
2022-09-30T09:41:19.475Z,23.40
2022-09-30T09:43:45.658Z,23.40
2022-09-30T09:46:11.898Z,23.41
2022-09-30T09:48:38.202Z,23.40
2022-09-30T09:51:04.516Z,23.39
2022-09-30T09:53:30.750Z,23.41
2022-09-30T09:55:56.979Z,23.40
2022-09-30T09:58:23.261Z,23.40
2022-09-30T10:00:49.525Z,23.40
2022-09-30T10:03:15.937Z,23.40
2022-09-30T10:05:42.256Z,23.40
2022-09-30T10:08:08.470Z,23.40
2022-09-30T10:10:34.733Z,23.40
2022-09-30T10:13:03.215Z,23.39
2022-09-30T10:15:29.525Z,23.39
2022-09-30T10:17:55.740Z,23.37
2022-09-30T10:20:21.937Z,23.38
2022-09-30T10:22:48.165Z,23.36
2022-09-30T10:25:14.372Z,23.36
2022-09-30T10:27:40.621Z,23.35
2022-09-30T10:30:06.844Z,23.34
2022-09-30T10:32:33.371Z,23.35
2022-09-30T10:34:59.729Z,23.33
2022-09-30T10:37:26.080Z,23.33
2022-09-30T10:39:52.544Z,23.32
2022-09-30T10:42:22.321Z,23.31
2022-09-30T10:44:49.953Z,23.31
2022-09-30T10:47:16.451Z,23.29
2022-09-30T10:49:42.760Z,23.29
2022-09-30T10:52:09.021Z,23.29
2022-09-30T10:54:35.239Z,23.27
2022-09-30T10:57:01.445Z,23.28
2022-09-30T10:59:27.754Z,23.27
2022-09-30T11:01:56.558Z,23.27
2022-09-30T11:04:24.877Z,23.26
2022-09-30T11:06:51.095Z,23.26
2022-09-30T11:09:17.324Z,23.25
2022-09-30T11:11:43.629Z,23.25
2022-09-30T11:14:09.816Z,23.24
2022-09-30T11:16:36.187Z,23.26
2022-09-30T11:19:02.533Z,23.26
2022-09-30T11:21:28.749Z,23.26
2022-09-30T11:23:54.939Z,23.26
2022-09-30T11:26:21.642Z,23.27
2022-09-30T11:28:48.075Z,23.26
2022-09-30T11:31:14.355Z,23.26
2022-09-30T11:33:40.572Z,23.25
2022-09-30T11:36:07.006Z,23.26
2022-09-30T11:38:33.242Z,23.25
2022-09-30T11:40:59.488Z,23.23
2022-09-30T11:43:26.116Z,23.23
2022-09-30T11:45:52.560Z,23.24
2022-09-30T11:48:18.858Z,23.22
2022-09-30T11:50:45.164Z,23.22
2022-09-30T11:53:11.361Z,23.21
2022-09-30T11:55:37.559Z,23.21
2022-09-30T11:58:22.449Z,23.22
2022-09-30T12:00:50.062Z,23.21
2022-09-30T12:03:16.629Z,23.21
2022-09-30T12:05:43.021Z,23.20
2022-09-30T12:08:09.865Z,23.20
2022-09-30T12:10:36.131Z,23.20
2022-09-30T12:13:02.649Z,23.20
2022-09-30T12:15:28.962Z,23.21
2022-09-30T12:17:55.289Z,23.20
2022-09-30T12:20:21.930Z,23.20
2022-09-30T12:22:48.167Z,23.20
2022-09-30T12:25:14.431Z,23.18
2022-09-30T12:27:40.999Z,23.19
2022-09-30T12:30:07.392Z,23.19
2022-09-30T12:32:33.697Z,23.18
2022-09-30T12:34:59.895Z,23.18
2022-09-30T12:37:26.179Z,23.17
2022-09-30T12:39:52.569Z,23.16
2022-09-30T12:42:18.762Z,23.16
2022-09-30T12:44:44.964Z,23.14
2022-09-30T12:47:11.332Z,23.14
2022-09-30T12:49:37.570Z,23.14
2022-09-30T12:52:03.872Z,23.13
2022-09-30T12:54:30.135Z,23.13
2022-09-30T12:56:58.539Z,23.11
2022-09-30T12:59:25.186Z,23.09
2022-09-30T13:01:51.521Z,23.09
2022-09-30T13:04:17.817Z,23.08
2022-09-30T13:06:44.130Z,23.06
2022-09-30T13:09:10.635Z,23.04
2022-09-30T13:11:36.895Z,23.04
2022-09-30T13:14:03.151Z,23.03
2022-09-30T13:16:30.020Z,23.01
2022-09-30T13:18:56.495Z,23.00
2022-09-30T13:21:22.702Z,22.99
2022-09-30T13:23:48.923Z,22.96
2022-09-30T13:26:15.143Z,22.96
2022-09-30T13:28:41.367Z,22.94
2022-09-30T13:31:07.643Z,22.93
2022-09-30T13:33:34.001Z,22.91
2022-09-30T13:36:00.324Z,22.90
2022-09-30T13:38:26.865Z,22.89
2022-09-30T13:41:02.756Z,22.87
2022-09-30T13:43:29.511Z,22.86
2022-09-30T13:45:55.760Z,22.84
2022-09-30T13:48:22.060Z,22.84
2022-09-30T13:50:48.593Z,22.82
2022-09-30T13:53:15.003Z,22.80
2022-09-30T13:55:41.398Z,22.79
2022-09-30T13:58:07.617Z,22.75
2022-09-30T14:00:33.893Z,22.73
2022-09-30T14:03:00.525Z,22.72
2022-09-30T14:05:26.874Z,22.72
2022-09-30T14:07:53.236Z,22.71
2022-09-30T14:10:19.549Z,22.70
2022-09-30T14:12:45.787Z,22.68
2022-09-30T14:15:12.048Z,22.66
2022-09-30T14:17:38.371Z,22.65
2022-09-30T14:20:04.588Z,22.64
2022-09-30T14:22:30.820Z,22.62
2022-09-30T14:24:57.516Z,22.63
2022-09-30T14:27:24.397Z,22.60
2022-09-30T14:29:50.723Z,22.60
2022-09-30T14:32:17.015Z,22.57
2022-09-30T14:34:43.610Z,22.57
2022-09-30T14:37:09.926Z,22.56
2022-09-30T14:39:36.162Z,22.53
2022-09-30T14:42:02.572Z,22.52
2022-09-30T14:44:29.322Z,22.51
2022-09-30T14:46:55.676Z,22.49
2022-09-30T14:49:24.641Z,22.45
2022-09-30T14:51:50.891Z,22.42
2022-09-30T14:54:17.630Z,22.38
2022-09-30T14:56:43.859Z,22.34
2022-09-30T14:59:10.614Z,22.32
2022-09-30T15:01:37.040Z,22.30
2022-09-30T15:04:03.325Z,22.26
2022-09-30T15:06:29.899Z,22.26
2022-09-30T15:08:56.633Z,22.23
2022-09-30T15:11:22.891Z,22.21
2022-09-30T15:13:49.155Z,22.20
2022-09-30T15:16:15.877Z,22.18
2022-09-30T15:18:42.130Z,22.16
2022-09-30T15:21:08.502Z,22.12
2022-09-30T15:23:34.851Z,22.09
2022-09-30T15:26:01.172Z,22.06
2022-09-30T15:28:27.872Z,22.06
2022-09-30T15:30:54.558Z,22.03
2022-09-30T15:33:20.860Z,22.02
2022-09-30T15:35:47.194Z,22.01
2022-09-30T15:38:13.376Z,21.99
2022-09-30T15:40:42.084Z,21.98
2022-09-30T15:43:08.381Z,21.98
2022-09-30T15:45:36.122Z,21.97
2022-09-30T15:48:02.611Z,21.96
2022-09-30T15:50:29.099Z,21.94
2022-09-30T15:52:55.347Z,21.92
2022-09-30T15:55:24.298Z,21.90
2022-09-30T15:57:50.545Z,21.88
2022-09-30T16:00:16.857Z,21.88
2022-09-30T16:02:43.870Z,21.85
2022-09-30T16:05:10.258Z,21.82
2022-09-30T16:07:36.523Z,21.81
2022-09-30T16:10:02.869Z,21.80
2022-09-30T16:12:29.386Z,21.77
2022-09-30T16:14:55.581Z,21.75
2022-09-30T16:17:23.088Z,21.73
2022-09-30T16:19:49.822Z,21.70
2022-09-30T16:22:16.111Z,21.68
2022-09-30T16:24:42.454Z,21.66
2022-09-30T16:27:08.698Z,21.64
2022-09-30T16:29:35.069Z,21.60
2022-09-30T16:32:06.345Z,21.58
2022-09-30T16:34:32.695Z,21.55
2022-09-30T16:36:59.516Z,21.53
2022-09-30T16:39:27.278Z,21.51
2022-09-30T16:41:56.306Z,21.48
2022-09-30T16:44:22.546Z,21.46
2022-09-30T16:46:48.799Z,21.42
2022-09-30T16:49:15.030Z,21.41
2022-09-30T16:51:41.227Z,21.38
2022-09-30T16:54:07.484Z,21.36
2022-09-30T16:56:34.075Z,21.33
2022-09-30T16:59:00.571Z,21.32
2022-09-30T17:01:26.910Z,21.29
2022-09-30T17:03:53.270Z,21.27
2022-09-30T17:06:19.484Z,21.24
2022-09-30T17:08:45.693Z,21.22
2022-09-30T17:11:11.973Z,21.18
2022-09-30T17:13:38.476Z,21.16
2022-09-30T17:16:05.007Z,21.13
2022-09-30T17:18:31.227Z,21.10
2022-09-30T17:20:57.483Z,20.95
2022-09-30T17:23:23.713Z,21.06
2022-09-30T17:25:49.945Z,21.03
2022-09-30T17:28:16.774Z,21.03
2022-09-30T17:30:43.105Z,21.01
2022-09-30T17:33:09.335Z,20.98
2022-09-30T17:35:35.675Z,20.96
2022-09-30T17:38:02.198Z,20.89
2022-09-30T17:40:28.627Z,20.92
2022-09-30T17:42:58.111Z,20.91
2022-09-30T17:45:25.134Z,20.89
2022-09-30T17:47:51.388Z,20.86
2022-09-30T17:50:17.620Z,20.85
2022-09-30T17:52:43.835Z,20.82
2022-09-30T17:55:10.481Z,20.81
2022-09-30T17:57:36.773Z,20.78
2022-09-30T18:00:02.984Z,20.76
2022-09-30T18:02:29.529Z,20.74
2022-09-30T18:04:55.963Z,20.72
2022-09-30T18:07:22.255Z,20.71
2022-09-30T18:09:48.456Z,20.68
2022-09-30T18:12:14.692Z,20.67
2022-09-30T18:14:40.970Z,20.66
2022-09-30T18:17:07.928Z,20.65
2022-09-30T18:19:34.439Z,20.63
2022-09-30T18:22:00.767Z,20.61
2022-09-30T18:24:26.987Z,20.58
2022-09-30T18:26:53.186Z,20.57
2022-09-30T18:29:19.459Z,20.54
2022-09-30T18:31:45.710Z,20.54
2022-09-30T18:34:12.558Z,20.52
2022-09-30T18:36:38.792Z,20.49
2022-09-30T18:39:05.025Z,20.49
2022-09-30T18:41:31.861Z,20.47
2022-09-30T18:43:58.519Z,20.45
2022-09-30T18:46:26.060Z,20.43
2022-09-30T18:48:52.607Z,20.40
2022-09-30T18:51:18.923Z,20.39
2022-09-30T18:53:45.201Z,20.36
2022-09-30T18:56:11.402Z,20.35
2022-09-30T18:58:37.640Z,20.35
2022-09-30T19:01:04.044Z,20.32
2022-09-30T19:03:30.443Z,20.31
2022-09-30T19:05:56.645Z,20.30
2022-09-30T19:08:23.350Z,20.30
2022-09-30T19:10:49.659Z,20.29
2022-09-30T19:13:15.891Z,20.27
2022-09-30T19:15:42.075Z,20.26
2022-09-30T19:18:08.497Z,20.24
2022-09-30T19:20:34.785Z,20.23
2022-09-30T19:23:01.357Z,20.21
2022-09-30T19:25:27.659Z,20.20
2022-09-30T19:27:53.934Z,20.17
2022-09-30T19:30:20.235Z,20.17
2022-09-30T19:32:46.606Z,20.16
2022-09-30T19:35:12.799Z,20.14
2022-09-30T19:37:39.063Z,20.13
2022-09-30T19:40:16.120Z,20.13
2022-09-30T19:42:45.103Z,20.12
2022-09-30T19:45:11.316Z,20.12
2022-09-30T19:47:41.270Z,20.11
2022-09-30T19:50:07.656Z,20.11
2022-09-30T19:52:34.115Z,20.10
2022-09-30T19:55:13.082Z,20.09
2022-09-30T19:57:42.205Z,20.08
2022-09-30T20:00:08.449Z,20.08
2022-09-30T20:02:34.713Z,20.07
2022-09-30T20:05:00.977Z,20.06
2022-09-30T20:07:27.288Z,20.05
2022-09-30T20:09:53.558Z,20.06
2022-09-30T20:12:19.777Z,20.03
2022-09-30T20:14:46.390Z,20.01
2022-09-30T20:17:12.659Z,20.00
2022-09-30T20:19:38.974Z,20.00
2022-09-30T20:22:05.178Z,19.99
2022-09-30T20:24:31.444Z,19.99
2022-09-30T20:26:57.690Z,20.01
2022-09-30T20:29:23.949Z,20.00
2022-09-30T20:31:50.594Z,19.99
2022-09-30T20:34:16.965Z,19.99
2022-09-30T20:36:43.513Z,19.99
2022-09-30T20:39:09.828Z,19.96
2022-09-30T20:41:36.543Z,19.95
2022-09-30T20:44:02.768Z,19.94
2022-09-30T20:46:28.987Z,19.94
2022-09-30T20:48:56.691Z,19.93
2022-09-30T20:51:22.920Z,19.90
2022-09-30T20:53:50.813Z,19.91
2022-09-30T20:56:17.087Z,19.90
2022-09-30T20:58:43.529Z,19.89
2022-09-30T21:01:09.805Z,19.88
2022-09-30T21:03:36.066Z,19.87
2022-09-30T21:06:02.301Z,19.86
2022-09-30T21:08:28.857Z,19.86
2022-09-30T21:10:55.083Z,19.85
2022-09-30T21:13:21.331Z,19.83
2022-09-30T21:15:47.655Z,19.82
2022-09-30T21:18:13.919Z,19.81
2022-09-30T21:20:40.190Z,19.80
2022-09-30T21:23:06.488Z,19.81
2022-09-30T21:25:32.730Z,19.79
2022-09-30T21:27:59.011Z,19.78
2022-09-30T21:30:25.288Z,19.77
2022-09-30T21:32:51.540Z,19.77
2022-09-30T21:35:17.771Z,19.75
2022-09-30T21:37:43.960Z,19.75
2022-09-30T21:40:10.220Z,19.73
2022-09-30T21:42:36.502Z,19.73
2022-09-30T21:45:02.771Z,19.71
2022-09-30T21:47:31.189Z,19.71
2022-09-30T21:49:57.563Z,19.67
2022-09-30T21:52:23.938Z,19.70
2022-09-30T21:54:50.606Z,19.69
2022-09-30T21:57:16.886Z,19.68
2022-09-30T21:59:45.494Z,19.68
2022-09-30T22:02:14.881Z,19.66
2022-09-30T22:04:41.152Z,19.62
2022-09-30T22:07:10.600Z,19.55
2022-09-30T22:09:39.420Z,19.48
2022-09-30T22:12:06.484Z,19.42
2022-09-30T22:14:32.835Z,19.36
2022-09-30T22:16:59.177Z,19.31
2022-09-30T22:19:25.372Z,19.11
2022-09-30T22:21:51.630Z,19.20
2022-09-30T22:24:17.871Z,19.15
2022-09-30T22:26:44.824Z,19.09
2022-09-30T22:29:11.071Z,19.04
2022-09-30T22:31:37.852Z,19.00
2022-09-30T22:34:04.603Z,18.94
2022-09-30T22:36:30.874Z,18.90
2022-09-30T22:38:57.512Z,18.86
2022-09-30T22:41:23.748Z,18.82
2022-09-30T22:43:49.959Z,18.78
2022-09-30T22:46:17.094Z,18.75
2022-09-30T22:48:44.126Z,18.69
2022-09-30T22:51:10.358Z,18.67
2022-09-30T22:53:37.961Z,18.63
2022-09-30T22:56:04.543Z,18.60
2022-09-30T22:58:30.794Z,18.56
2022-09-30T23:00:58.918Z,18.52
2022-09-30T23:03:25.207Z,18.49
2022-09-30T23:05:51.540Z,18.45
2022-09-30T23:08:17.750Z,18.43
2022-09-30T23:10:44.568Z,18.40
2022-09-30T23:13:10.757Z,18.36
2022-09-30T23:15:36.970Z,18.34
2022-09-30T23:18:03.155Z,18.30
2022-09-30T23:20:29.390Z,18.27
2022-09-30T23:22:56.628Z,18.26
2022-09-30T23:25:22.925Z,18.23
2022-09-30T23:27:49.358Z,18.20
2022-09-30T23:30:15.607Z,18.17
2022-09-30T23:32:42.083Z,18.16
2022-09-30T23:35:08.628Z,18.13
2022-09-30T23:37:34.838Z,18.10
2022-09-30T23:40:01.118Z,18.08
2022-09-30T23:42:27.351Z,18.06
2022-09-30T23:44:53.687Z,18.04
2022-09-30T23:47:19.877Z,18.03
2022-09-30T23:49:46.111Z,18.00
2022-09-30T23:52:13.436Z,17.97
2022-09-30T23:54:39.839Z,17.95
2022-09-30T23:57:07.089Z,17.92
2022-09-30T23:59:33.310Z,17.88
